sensor_id;sensor_type;location;lat;lon;timestamp;pressure;altitude;pressure_sealevel;temperature;humidity
35758;BME280;21879;50.110;18.900;2024-02-26T00:05:20;97678.99;;;22.42;44.33
35758;BME280;21879;50.110;18.900;2024-02-26T00:15:26;97670.45;;;22.43;44.27
35758;BME280;21879;50.110;18.900;2024-02-26T00:25:32;97668.98;;;22.43;44.21
35758;BME280;21879;50.110;18.900;2024-02-26T00:35:38;97674.13;;;22.43;44.30
35758;BME280;21879;50.110;18.900;2024-02-26T00:45:43;97668.13;;;22.43;44.18
35758;BME280;21879;50.110;18.900;2024-02-26T00:55:50;97680.17;;;22.43;44.11
35758;BME280;21879;50.110;18.900;2024-02-26T01:05:56;97683.59;;;22.42;44.06
35758;BME280;21879;50.110;18.900;2024-02-26T01:16:03;97679.30;;;22.43;44.05
35758;BME280;21879;50.110;18.900;2024-02-26T01:26:08;97679.84;;;22.43;44.01
35758;BME280;21879;50.110;18.900;2024-02-26T01:36:15;97675.81;;;22.42;43.97
35758;BME280;21879;50.110;18.900;2024-02-26T01:46:21;97667.48;;;22.42;43.92
35758;BME280;21879;50.110;18.900;2024-02-26T01:56:27;97662.16;;;22.43;43.94
35758;BME280;21879;50.110;18.900;2024-02-26T02:06:35;97666.81;;;22.42;43.95
35758;BME280;21879;50.110;18.900;2024-02-26T02:16:41;97660.79;;;22.42;43.92
35758;BME280;21879;50.110;18.900;2024-02-26T02:26:47;97660.90;;;22.43;43.88
35758;BME280;21879;50.110;18.900;2024-02-26T02:36:53;97657.52;;;22.43;43.83
35758;BME280;21879;50.110;18.900;2024-02-26T02:46:59;97660.55;;;22.43;43.80
35758;BME280;21879;50.110;18.900;2024-02-26T02:57:05;97666.09;;;22.42;43.76
35758;BME280;21879;50.110;18.900;2024-02-26T03:07:10;97653.16;;;22.42;43.68
35758;BME280;21879;50.110;18.900;2024-02-26T03:17:16;97645.73;;;22.42;43.68
35758;BME280;21879;50.110;18.900;2024-02-26T03:27:21;97636.00;;;22.41;43.68
35758;BME280;21879;50.110;18.900;2024-02-26T03:37:27;97636.70;;;22.42;43.67
35758;BME280;21879;50.110;18.900;2024-02-26T03:47:32;97627.14;;;22.41;43.56
35758;BME280;21879;50.110;18.900;2024-02-26T03:57:38;97621.13;;;22.41;43.50
35758;BME280;21879;50.110;18.900;2024-02-26T04:07:44;97611.88;;;22.42;43.56
35758;BME280;21879;50.110;18.900;2024-02-26T04:17:49;97601.27;;;22.42;43.49
35758;BME280;21879;50.110;18.900;2024-02-26T04:27:55;97594.00;;;22.42;43.45
35758;BME280;21879;50.110;18.900;2024-02-26T04:38:01;97591.66;;;22.43;43.56
35758;BME280;21879;50.110;18.900;2024-02-26T04:48:07;97586.46;;;22.43;43.65
35758;BME280;21879;50.110;18.900;2024-02-26T04:58:13;97581.65;;;22.43;43.59
35758;BME280;21879;50.110;18.900;2024-02-26T05:08:18;97581.89;;;22.43;43.67
35758;BME280;21879;50.110;18.900;2024-02-26T05:18:24;97587.39;;;22.43;43.69
35758;BME280;21879;50.110;18.900;2024-02-26T05:28:30;97593.92;;;22.43;43.71
35758;BME280;21879;50.110;18.900;2024-02-26T05:38:49;97594.07;;;22.43;43.68
35758;BME280;21879;50.110;18.900;2024-02-26T05:48:55;97595.45;;;22.44;43.67
35758;BME280;21879;50.110;18.900;2024-02-26T05:59:01;97601.36;;;22.43;43.61
35758;BME280;21879;50.110;18.900;2024-02-26T06:09:07;97611.33;;;22.42;43.56
35758;BME280;21879;50.110;18.900;2024-02-26T06:19:13;97618.38;;;22.43;43.52
35758;BME280;21879;50.110;18.900;2024-02-26T06:29:18;97621.95;;;22.42;43.51
35758;BME280;21879;50.110;18.900;2024-02-26T06:39:24;97629.05;;;22.42;43.41
35758;BME280;21879;50.110;18.900;2024-02-26T06:49:31;97632.40;;;22.42;43.36
35758;BME280;21879;50.110;18.900;2024-02-26T06:59:36;97639.09;;;22.43;43.26
35758;BME280;21879;50.110;18.900;2024-02-26T07:09:43;97640.66;;;22.43;43.23
35758;BME280;21879;50.110;18.900;2024-02-26T07:19:48;97647.33;;;22.44;43.14
35758;BME280;21879;50.110;18.900;2024-02-26T07:29:55;97642.67;;;22.45;43.17
35758;BME280;21879;50.110;18.900;2024-02-26T07:40:00;97647.53;;;22.46;43.14
35758;BME280;21879;50.110;18.900;2024-02-26T07:50:07;97640.87;;;22.47;43.13
35758;BME280;21879;50.110;18.900;2024-02-26T08:00:14;97632.54;;;22.48;43.11
35758;BME280;21879;50.110;18.900;2024-02-26T08:10:21;97638.77;;;22.45;42.44
35758;BME280;21879;50.110;18.900;2024-02-26T08:20:27;97644.05;;;22.43;42.04
35758;BME280;21879;50.110;18.900;2024-02-26T08:30:33;97643.79;;;22.42;42.11
35758;BME280;21879;50.110;18.900;2024-02-26T08:40:38;97648.25;;;22.43;42.29
35758;BME280;21879;50.110;18.900;2024-02-26T08:50:44;97641.60;;;22.47;42.46
35758;BME280;21879;50.110;18.900;2024-02-26T09:00:49;97646.62;;;22.51;42.40
35758;BME280;21879;50.110;18.900;2024-02-26T09:10:55;97649.48;;;22.56;42.75
35758;BME280;21879;50.110;18.900;2024-02-26T09:21:03;97648.80;;;22.62;43.61
35758;BME280;21879;50.110;18.900;2024-02-26T09:31:09;97648.77;;;22.67;43.53
35758;BME280;21879;50.110;18.900;2024-02-26T09:41:15;97647.54;;;22.69;43.40
35758;BME280;21879;50.110;18.900;2024-02-26T09:51:21;97649.01;;;22.71;43.48
35758;BME280;21879;50.110;18.900;2024-02-26T10:01:30;97646.65;;;22.72;43.87
35758;BME280;21879;50.110;18.900;2024-02-26T10:11:37;97644.70;;;22.74;44.22
35758;BME280;21879;50.110;18.900;2024-02-26T10:21:43;97642.04;;;22.74;44.19
35758;BME280;21879;50.110;18.900;2024-02-26T10:31:50;97634.61;;;22.74;44.26
35758;BME280;21879;50.110;18.900;2024-02-26T10:41:56;97632.81;;;22.74;44.27
35758;BME280;21879;50.110;18.900;2024-02-26T10:52:02;97637.05;;;22.74;44.21
35758;BME280;21879;50.110;18.900;2024-02-26T11:02:11;97638.54;;;22.73;44.30
35758;BME280;21879;50.110;18.900;2024-02-26T11:12:18;97632.02;;;22.73;44.34
35758;BME280;21879;50.110;18.900;2024-02-26T11:22:27;97624.04;;;22.73;44.41
35758;BME280;21879;50.110;18.900;2024-02-26T11:32:33;97616.94;;;22.73;44.47
35758;BME280;21879;50.110;18.900;2024-02-26T11:42:43;97617.00;;;22.75;44.62
35758;BME280;21879;50.110;18.900;2024-02-26T12:03:08;97610.90;;;22.79;44.83
35758;BME280;21879;50.110;18.900;2024-02-26T12:13:16;97610.77;;;22.80;44.79
35758;BME280;21879;50.110;18.900;2024-02-26T12:23:24;97606.83;;;22.81;44.79
35758;BME280;21879;50.110;18.900;2024-02-26T12:33:30;97601.67;;;22.79;44.84
35758;BME280;21879;50.110;18.900;2024-02-26T12:43:36;97606.05;;;22.77;45.20
35758;BME280;21879;50.110;18.900;2024-02-26T12:53:41;97613.52;;;22.77;45.63
35758;BME280;21879;50.110;18.900;2024-02-26T13:03:48;97613.60;;;22.75;45.89
35758;BME280;21879;50.110;18.900;2024-02-26T13:13:54;97611.08;;;22.74;45.82
35758;BME280;21879;50.110;18.900;2024-02-26T13:24:00;97612.64;;;22.72;45.94
35758;BME280;21879;50.110;18.900;2024-02-26T13:34:06;97610.65;;;22.70;45.96
35758;BME280;21879;50.110;18.900;2024-02-26T13:44:11;97607.77;;;22.68;45.89
35758;BME280;21879;50.110;18.900;2024-02-26T13:54:31;97602.69;;;22.67;45.86
35758;BME280;21879;50.110;18.900;2024-02-26T14:04:37;97605.56;;;22.67;45.82
35758;BME280;21879;50.110;18.900;2024-02-26T14:14:43;97609.77;;;22.65;45.81
35758;BME280;21879;50.110;18.900;2024-02-26T14:24:50;97617.17;;;22.63;45.80
35758;BME280;21879;50.110;18.900;2024-02-26T14:34:56;97619.27;;;22.61;45.88
35758;BME280;21879;50.110;18.900;2024-02-26T14:45:02;97622.05;;;22.60;45.74
35758;BME280;21879;50.110;18.900;2024-02-26T14:55:10;97616.68;;;22.58;45.67
35758;BME280;21879;50.110;18.900;2024-02-26T15:05:16;97615.56;;;22.57;45.63
35758;BME280;21879;50.110;18.900;2024-02-26T15:15:23;97606.16;;;22.55;45.68
35758;BME280;21879;50.110;18.900;2024-02-26T15:25:29;97615.67;;;22.53;45.62
35758;BME280;21879;50.110;18.900;2024-02-26T15:35:35;97627.18;;;22.50;45.60
35758;BME280;21879;50.110;18.900;2024-02-26T15:45:42;97636.51;;;22.49;45.50
35758;BME280;21879;50.110;18.900;2024-02-26T15:55:47;97638.23;;;22.47;45.48
35758;BME280;21879;50.110;18.900;2024-02-26T16:05:53;97643.27;;;22.46;45.45
35758;BME280;21879;50.110;18.900;2024-02-26T16:16:01;97652.55;;;22.45;45.51
35758;BME280;21879;50.110;18.900;2024-02-26T16:26:08;97664.45;;;22.45;45.51
35758;BME280;21879;50.110;18.900;2024-02-26T16:36:13;97681.91;;;22.43;45.47
35758;BME280;21879;50.110;18.900;2024-02-26T16:46:19;97686.72;;;22.43;45.48
35758;BME280;21879;50.110;18.900;2024-02-26T16:56:25;97694.40;;;22.42;45.54
35758;BME280;21879;50.110;18.900;2024-02-26T17:06:31;97705.23;;;22.42;45.39
35758;BME280;21879;50.110;18.900;2024-02-26T17:16:37;97719.84;;;22.41;45.37
35758;BME280;21879;50.110;18.900;2024-02-26T17:26:43;97728.02;;;22.40;45.40
35758;BME280;21879;50.110;18.900;2024-02-26T17:36:49;97738.11;;;22.40;45.36
35758;BME280;21879;50.110;18.900;2024-02-26T17:46:54;97742.95;;;22.40;45.35
35758;BME280;21879;50.110;18.900;2024-02-26T17:57:00;97756.59;;;22.39;45.36
35758;BME280;21879;50.110;18.900;2024-02-26T18:07:06;97764.56;;;22.40;45.32
35758;BME280;21879;50.110;18.900;2024-02-26T18:17:12;97775.29;;;22.38;45.36
35758;BME280;21879;50.110;18.900;2024-02-26T18:27:19;97790.23;;;22.37;45.35
35758;BME280;21879;50.110;18.900;2024-02-26T18:37:24;97794.69;;;22.37;45.34
35758;BME280;21879;50.110;18.900;2024-02-26T18:47:30;97794.44;;;22.35;45.23
35758;BME280;21879;50.110;18.900;2024-02-26T18:57:37;97803.90;;;22.34;45.24
35758;BME280;21879;50.110;18.900;2024-02-26T19:07:42;97816.30;;;22.34;45.23
35758;BME280;21879;50.110;18.900;2024-02-26T19:17:48;97822.19;;;22.34;45.29
35758;BME280;21879;50.110;18.900;2024-02-26T19:27:54;97831.39;;;22.34;45.23
35758;BME280;21879;50.110;18.900;2024-02-26T19:38:00;97836.90;;;22.33;45.25
35758;BME280;21879;50.110;18.900;2024-02-26T19:48:06;97848.25;;;22.33;45.22
35758;BME280;21879;50.110;18.900;2024-02-26T19:58:12;97860.30;;;22.33;45.14
35758;BME280;21879;50.110;18.900;2024-02-26T20:08:17;97868.70;;;22.32;45.09
35758;BME280;21879;50.110;18.900;2024-02-26T20:18:23;97871.21;;;22.32;44.98
35758;BME280;21879;50.110;18.900;2024-02-26T20:28:28;97877.80;;;22.31;44.88
35758;BME280;21879;50.110;18.900;2024-02-26T20:38:38;97886.35;;;22.31;44.95
35758;BME280;21879;50.110;18.900;2024-02-26T20:48:44;97893.09;;;22.30;44.88
35758;BME280;21879;50.110;18.900;2024-02-26T20:58:50;97908.13;;;22.30;44.96
35758;BME280;21879;50.110;18.900;2024-02-26T21:08:55;97909.02;;;22.30;44.92
35758;BME280;21879;50.110;18.900;2024-02-26T21:19:01;97923.55;;;22.30;44.98
35758;BME280;21879;50.110;18.900;2024-02-26T21:29:10;97932.42;;;22.30;44.83
35758;BME280;21879;50.110;18.900;2024-02-26T21:39:15;97940.20;;;22.30;44.81
35758;BME280;21879;50.110;18.900;2024-02-26T21:49:21;97949.89;;;22.33;45.14
35758;BME280;21879;50.110;18.900;2024-02-26T21:59:27;97956.98;;;22.38;45.33
35758;BME280;21879;50.110;18.900;2024-02-26T22:09:32;97966.86;;;22.42;45.35
35758;BME280;21879;50.110;18.900;2024-02-26T22:19:39;97970.84;;;22.45;45.76
35758;BME280;21879;50.110;18.900;2024-02-26T22:29:44;97973.60;;;22.51;46.57
35758;BME280;21879;50.110;18.900;2024-02-26T22:39:49;97982.98;;;22.57;47.06
35758;BME280;21879;50.110;18.900;2024-02-26T22:49:55;97994.70;;;22.62;47.12
35758;BME280;21879;50.110;18.900;2024-02-26T23:00:00;97998.27;;;22.64;47.10
35758;BME280;21879;50.110;18.900;2024-02-26T23:10:14;97999.70;;;22.66;47.13
35758;BME280;21879;50.110;18.900;2024-02-26T23:20:20;98008.90;;;22.69;47.38
35758;BME280;21879;50.110;18.900;2024-02-26T23:30:26;98007.70;;;22.70;47.60
35758;BME280;21879;50.110;18.900;2024-02-26T23:40:32;98012.29;;;22.73;47.62
35758;BME280;21879;50.110;18.900;2024-02-26T23:50:38;98010.53;;;22.76;47.67
